Time;durP1;ratioP1;P1;durP2;ratioP2;P2;SDS_P1;SDS_P2;PMS_P1;PMS_P2;Temp;Humidity;BMP_temperature;BMP_pressure;BME280_temperature;BME280_humidity;BME280_pressure;Samples;Min_cycle;Max_cycle;Signal;HPM_P1;HPM_P2
2023/02/12 00:01:37;;;;;;;37.50;19.73;;;;;;;6.41;57.50;98038.63;4967954;28;20185;-70
2023/02/12 00:04:03;;;;;;;24.57;18.87;;;;;;;6.28;58.00;98050.81;4963694;28;20192;-70
2023/02/12 00:06:29;;;;;;;22.73;17.43;;;;;;;6.27;58.12;98046.47;4968096;28;20261;-70
2023/02/12 00:08:56;;;;;;;24.33;17.20;;;;;;;6.26;58.26;98055.16;4966848;28;20198;-70
2023/02/12 00:11:27;;;;;;;22.63;18.77;;;;;;;6.29;57.92;98049.06;4967767;28;20182;-70
2023/02/12 00:13:54;;;;;;;27.53;19.13;;;;;;;6.33;57.96;98050.78;4969076;28;20439;-70
2023/02/12 00:16:22;;;;;;;26.80;18.17;;;;;;;6.28;58.04;98053.44;4968858;28;20499;-69
2023/02/12 00:18:52;;;;;;;21.33;17.70;;;;;;;6.34;58.07;98048.19;4968871;28;20464;-70
2023/02/12 00:21:18;;;;;;;24.97;18.07;;;;;;;6.36;57.43;98056.03;4967444;28;20461;-70
2023/02/12 00:23:43;;;;;;;23.50;17.40;;;;;;;6.29;58.15;98055.16;4968196;28;20973;-69
2023/02/12 00:26:11;;;;;;;27.50;19.97;;;;;;;6.17;58.37;98056.91;4967601;28;20216;-70
2023/02/12 00:28:37;;;;;;;27.90;20.30;;;;;;;5.89;58.64;98059.44;4968146;28;20201;-69
2023/02/12 00:31:14;;;;;;;23.07;19.00;;;;;;;5.81;59.86;98063.75;4967123;28;20437;-68
2023/02/12 00:33:40;;;;;;;24.63;19.07;;;;;;;6.09;59.09;98062.94;4967798;28;20271;-70
2023/02/12 00:36:07;;;;;;;27.23;18.50;;;;;;;6.13;58.93;98058.63;4967450;28;21453;-69
2023/02/12 00:38:32;;;;;;;26.47;18.23;;;;;;;6.18;58.27;98051.66;4966755;28;20209;-69
2023/02/12 00:40:58;;;;;;;29.43;18.97;;;;;;;6.21;58.24;98058.63;4967828;28;20451;-69
2023/02/12 00:43:23;;;;;;;23.10;17.93;;;;;;;6.06;58.77;98060.34;4967728;28;20650;-69
2023/02/12 00:45:49;;;;;;;24.17;18.17;;;;;;;5.99;59.27;98060.34;4967303;28;20249;-68
2023/02/12 00:48:15;;;;;;;25.10;19.50;;;;;;;5.48;60.65;98065.41;4966652;28;20205;-70
2023/02/12 00:50:42;;;;;;;30.20;21.13;;;;;;;5.50;60.74;98067.19;4967337;28;20746;-69
2023/02/12 00:53:08;;;;;;;29.13;19.60;;;;;;;5.80;59.94;98065.50;4967110;28;20499;-70
2023/02/12 00:55:33;;;;;;;29.27;20.77;;;;;;;5.92;59.35;98072.47;4967255;28;20520;-70
2023/02/12 00:58:00;;;;;;;32.17;21.27;;;;;;;5.94;59.42;98069.03;4981241;28;20335;-68
2023/02/12 01:00:25;;;;;;;27.77;19.90;;;;;;;5.25;61.10;98078.38;4967115;28;20204;-68
2023/02/12 01:02:50;;;;;;;30.77;23.50;;;;;;;5.38;61.27;98069.72;4967392;28;20429;-68
2023/02/12 01:05:16;;;;;;;30.73;22.07;;;;;;;5.73;60.28;98076.78;4967345;28;20182;-68
2023/02/12 01:07:42;;;;;;;28.07;22.07;;;;;;;5.69;60.44;98082.84;4965960;28;20198;-70
2023/02/12 01:10:07;;;;;;;36.53;22.40;;;;;;;5.36;61.75;98073.19;4967189;28;20197;-70
2023/02/12 01:12:33;;;;;;;36.93;24.67;;;;;;;5.54;61.05;98069.78;4967199;28;20173;-69
2023/02/12 01:14:59;;;;;;;28.37;21.57;;;;;;;5.73;60.16;98064.63;4967234;28;20181;-70
2023/02/12 01:17:24;;;;;;;33.30;22.80;;;;;;;5.91;59.80;98069.00;4966343;28;20221;-70
2023/02/12 01:19:50;;;;;;;34.93;20.97;;;;;;;5.96;59.89;98076.00;4967067;28;20252;-68
2023/02/12 01:22:16;;;;;;;33.43;21.97;;;;;;;6.03;59.00;98070.78;4966811;28;20188;-68
2023/02/12 01:24:41;;;;;;;29.77;20.90;;;;;;;6.17;59.03;98075.16;4968470;28;20543;-68
2023/02/12 01:27:07;;;;;;;33.50;22.87;;;;;;;6.17;59.07;98072.53;4968121;28;20479;-68
2023/02/12 01:29:32;;;;;;;33.57;23.20;;;;;;;6.09;59.26;98070.78;4968330;28;20774;-68
2023/02/12 01:31:57;;;;;;;33.17;23.27;;;;;;;6.07;59.07;98072.53;4968461;28;20169;-68
2023/02/12 01:34:23;;;;;;;36.57;23.00;;;;;;;6.03;59.46;98070.78;4967725;28;20188;-68
2023/02/12 01:36:48;;;;;;;30.97;22.10;;;;;;;6.05;59.02;98079.47;4968052;28;20267;-69
2023/02/12 01:39:14;;;;;;;35.60;24.20;;;;;;;6.08;58.97;98081.22;4968579;28;20205;-69
2023/02/12 01:41:43;;;;;;;37.87;23.50;;;;;;;5.89;59.34;98082.91;4968245;28;20196;-68
2023/02/12 01:44:20;;;;;;;28.47;20.40;;;;;;;6.14;59.17;98071.66;4968156;28;20173;-68
2023/02/12 01:46:48;;;;;;;28.13;21.97;;;;;;;5.65;60.51;98074.16;4968078;28;20413;-69
2023/02/12 01:49:47;;;;;;;35.17;23.27;;;;;;;5.66;60.88;98078.50;4968316;28;20433;-69
2023/02/12 01:52:19;;;;;;;31.80;22.87;;;;;;;5.84;60.49;98076.81;4968268;28;20421;-68
2023/02/12 01:54:45;;;;;;;32.97;23.33;;;;;;;5.93;59.96;98069.88;4968367;28;20474;-69
2023/02/12 01:57:13;;;;;;;28.03;21.60;;;;;;;6.02;59.97;98063.81;4967972;28;21260;-68
2023/02/12 01:59:41;;;;;;;31.70;23.50;;;;;;;6.03;59.70;98062.97;4967966;28;20518;-68
2023/02/12 02:02:06;;;;;;;31.73;21.50;;;;;;;6.05;59.34;98057.78;4968210;28;20405;-68
2023/02/12 02:04:42;;;;;;;31.30;22.20;;;;;;;6.10;59.97;98056.88;4968181;28;20933;-68
2023/02/12 02:07:09;;;;;;;33.00;21.97;;;;;;;6.14;59.37;98063.84;4967838;28;20177;-69
2023/02/12 02:09:38;;;;;;;33.93;23.30;;;;;;;5.47;61.27;98053.28;4968203;28;20510;-68
2023/02/12 02:14:51;;;;;;;34.53;23.60;;;;;;;5.62;61.29;98049.84;4971926;28;20412;-68
2023/02/12 02:17:38;;;;;;;33.50;24.00;;;;;;;5.20;62.96;98054.06;4971669;28;20428;-68
2023/02/12 02:20:31;;;;;;;34.23;23.90;;;;;;;5.35;62.00;98056.72;4971570;28;20484;-68
2023/02/12 02:23:17;;;;;;;36.33;24.67;;;;;;;5.42;62.06;98057.59;4971786;28;20512;-68
2023/02/12 02:26:27;;;;;;;36.03;23.90;;;;;;;5.71;60.98;98052.47;4971595;28;20413;-68
2023/02/12 02:29:00;;;;;;;30.17;23.07;;;;;;;5.83;60.96;98049.00;4979208;28;20432;-68
2023/02/12 02:31:42;;;;;;;38.97;25.83;;;;;;;5.75;60.95;98049.00;4971479;28;20524;-69
2023/02/12 02:34:18;;;;;;;31.03;23.60;;;;;;;5.32;62.62;98048.91;4971539;28;20763;-68
2023/02/12 02:37:06;;;;;;;37.83;25.27;;;;;;;5.11;63.28;98051.41;4971222;28;20408;-68
2023/02/12 02:39:41;;;;;;;32.33;24.10;;;;;;;5.31;62.11;98034.13;4971185;28;20472;-68
2023/02/12 02:42:09;;;;;;;43.90;28.00;;;;;;;5.11;63.28;98036.66;4971361;28;20412;-70
2023/02/12 02:44:54;;;;;;;40.00;27.50;;;;;;;4.95;63.69;98040.06;4971320;28;20513;-69
2023/02/12 02:47:24;;;;;;;36.80;24.83;;;;;;;4.91;63.48;98051.31;4971084;28;20860;-68
2023/02/12 02:49:55;;;;;;;34.70;25.20;;;;;;;4.84;64.01;98034.78;4971228;28;20711;-68
2023/02/12 02:52:32;;;;;;;36.93;27.23;;;;;;;4.75;64.55;98047.75;4971373;28;20405;-68
2023/02/12 02:55:05;;;;;;;36.53;27.83;;;;;;;4.87;63.89;98048.69;4971347;28;20895;-69
2023/02/12 02:57:40;;;;;;;33.00;25.00;;;;;;;4.82;64.12;98044.34;4970738;28;20496;-68
2023/02/12 03:00:26;;;;;;;33.40;27.43;;;;;;;4.64;65.05;98051.16;4971350;28;20662;-68
2023/02/12 03:03:00;;;;;;;36.23;27.23;;;;;;;4.98;63.97;98055.69;4975596;28;21008;-69
2023/02/12 03:05:32;;;;;;;36.23;26.83;;;;;;;4.68;64.39;98057.28;4971697;28;20452;-69
2023/02/12 03:08:28;;;;;;;36.40;27.40;;;;;;;4.88;63.79;98057.38;4970959;28;20433;-69
2023/02/12 03:10:58;;;;;;;39.50;27.17;;;;;;;4.84;63.95;98053.91;4971056;28;20443;-68
2023/02/12 03:13:32;;;;;;;39.83;27.83;;;;;;;4.99;64.22;98053.09;4970779;28;20838;-69
2023/02/12 03:16:04;;;;;;;36.17;28.23;;;;;;;5.25;62.90;98055.81;4970682;28;20934;-68
2023/02/12 03:18:35;;;;;;;39.17;28.97;;;;;;;5.17;63.43;98056.63;4970539;28;20433;-68
2023/02/12 03:21:06;;;;;;;40.33;28.47;;;;;;;5.28;62.81;98058.41;4970771;28;20413;-68
2023/02/12 03:23:46;;;;;;;34.57;26.97;;;;;;;5.03;63.71;98062.66;4969610;28;20787;-68
2023/02/12 03:26:20;;;;;;;39.50;29.10;;;;;;;4.85;64.63;98055.63;4970291;28;20512;-69
2023/02/12 03:28:46;;;;;;;41.40;27.00;;;;;;;4.70;65.72;98059.84;4970539;28;20554;-69
2023/02/12 03:31:40;;;;;;;35.50;27.00;;;;;;;4.87;65.12;98053.03;4956380;28;20517;-68
2023/02/12 03:34:08;;;;;;;39.60;29.50;;;;;;;4.64;65.45;98052.91;4951337;28;20174;-68
2023/02/12 03:36:57;;;;;;;44.90;30.07;;;;;;;5.10;63.85;98055.72;4950875;29;20473;-68
2023/02/12 03:39:34;;;;;;;37.87;27.23;;;;;;;5.23;64.32;98062.75;4951004;28;20462;-68
2023/02/12 03:42:07;;;;;;;40.63;29.73;;;;;;;5.39;63.24;98050.66;4951147;29;20413;-69
2023/02/12 03:44:39;;;;;;;41.13;29.50;;;;;;;5.19;63.75;98054.91;4951177;29;20405;-69
2023/02/12 03:47:18;;;;;;;41.00;27.80;;;;;;;5.29;63.53;98051.47;4950595;29;20425;-69
2023/02/12 03:50:09;;;;;;;37.33;25.93;;;;;;;5.44;62.84;98055.88;4951060;29;21190;-69
2023/02/12 03:52:35;;;;;;;43.13;27.90;;;;;;;5.44;62.62;98055.88;4950993;29;20418;-69
2023/02/12 03:55:02;;;;;;;40.03;29.27;;;;;;;5.55;62.79;98056.78;4950790;29;20421;-69
2023/02/12 03:57:34;;;;;;;37.10;27.93;;;;;;;5.57;62.22;98057.63;4950586;29;20186;-69
2023/02/12 04:00:05;;;;;;;38.57;28.27;;;;;;;5.42;63.00;98057.59;4950715;29;20547;-69
2023/02/12 04:02:31;;;;;;;41.47;28.80;;;;;;;5.57;62.47;98064.59;4950657;29;20413;-69
2023/02/12 04:04:56;;;;;;;42.47;30.87;;;;;;;5.49;62.38;98065.44;4950887;29;20422;-69
2023/02/12 04:07:22;;;;;;;44.20;28.73;;;;;;;5.50;62.09;98071.50;4950367;29;20180;-69
2023/02/12 04:09:47;;;;;;;44.37;29.60;;;;;;;5.66;61.50;98075.03;4950544;28;20186;-69
2023/02/12 04:12:37;;;;;;;39.30;27.60;;;;;;;5.53;62.21;98079.34;4950530;29;20196;-69
2023/02/12 04:15:27;;;;;;;37.13;28.93;;;;;;;5.54;61.76;98077.59;4950575;28;20178;-69
2023/02/12 04:18:19;;;;;;;38.40;29.13;;;;;;;5.59;62.01;98081.09;4950100;28;21126;-69
2023/02/12 04:21:16;;;;;;;38.03;28.63;;;;;;;4.96;64.06;98089.50;4950661;29;20422;-69
2023/02/12 04:24:19;;;;;;;39.97;27.57;;;;;;;4.95;63.88;98087.75;4950339;28;21046;-70
2023/02/12 04:27:31;;;;;;;38.37;27.83;;;;;;;4.91;64.15;98090.34;4966579;28;20876;-68
2023/02/12 04:30:04;;;;;;;34.53;27.60;;;;;;;4.66;64.59;98085.84;4945843;28;20444;-68
2023/02/12 04:32:42;;;;;;;37.60;27.33;;;;;;;5.07;63.84;98085.22;4969409;28;20412;-68
2023/02/12 04:35:19;;;;;;;36.50;27.93;;;;;;;5.08;63.86;98088.72;4969271;28;20417;-69
2023/02/12 04:37:49;;;;;;;47.70;27.13;;;;;;;5.22;63.46;98084.44;4968790;28;20515;-69
2023/02/12 04:40:19;;;;;;;34.03;26.50;;;;;;;5.38;62.76;98087.09;4969458;28;20826;-69
2023/02/12 04:42:51;;;;;;;43.10;29.67;;;;;;;5.44;62.20;98084.50;4969243;28;20953;-69
2023/02/12 04:45:28;;;;;;;38.87;28.10;;;;;;;5.45;62.58;98091.44;4969107;28;20499;-69
2023/02/12 04:47:53;;;;;;;37.87;29.13;;;;;;;5.29;63.06;98088.81;4968816;28;20428;-69
2023/02/12 04:50:19;;;;;;;43.67;29.30;;;;;;;5.37;62.62;98090.56;4969159;28;20443;-69
2023/02/12 04:52:44;;;;;;;38.23;27.83;;;;;;;5.52;62.39;98094.06;4969172;28;20231;-69
2023/02/12 04:55:10;;;;;;;45.97;31.17;;;;;;;5.62;62.13;98094.09;4969148;28;20189;-69
2023/02/12 04:57:36;;;;;;;39.67;27.57;;;;;;;5.53;62.32;98097.56;4968907;28;20187;-69
2023/02/12 05:00:04;;;;;;;39.83;28.37;;;;;;;5.48;62.50;98094.06;4968680;28;20465;-69
2023/02/12 05:02:31;;;;;;;36.47;29.03;;;;;;;5.52;62.35;98091.47;4969000;28;20582;-69
2023/02/12 05:04:57;;;;;;;39.37;28.70;;;;;;;5.52;62.45;98094.06;4968854;28;20953;-68
2023/02/12 05:07:22;;;;;;;37.37;26.73;;;;;;;5.62;61.93;98086.28;4968174;28;20508;-68
2023/02/12 05:09:48;;;;;;;34.87;27.67;;;;;;;5.35;63.31;98090.56;4968892;28;20180;-68
2023/02/12 05:12:13;;;;;;;42.20;31.03;;;;;;;4.82;65.22;98091.16;4968963;28;20216;-68
2023/02/12 05:14:38;;;;;;;37.67;28.67;;;;;;;4.82;65.13;98091.16;4968734;28;20248;-68
2023/02/12 05:17:04;;;;;;;43.73;29.17;;;;;;;4.96;64.62;98086.00;4968611;28;20204;-68
2023/02/12 05:19:30;;;;;;;43.27;31.97;;;;;;;4.70;65.75;98084.16;4968704;28;20217;-68
2023/02/12 05:21:55;;;;;;;38.33;29.40;;;;;;;4.62;66.48;98085.81;4968746;28;20185;-68
2023/02/12 05:24:20;;;;;;;39.50;29.93;;;;;;;4.80;66.02;98095.50;4968762;28;20205;-68
2023/02/12 05:26:48;;;;;;;35.77;28.70;;;;;;;4.84;65.63;98092.03;4968416;28;20182;-69
2023/02/12 05:29:14;;;;;;;45.07;30.90;;;;;;;4.71;66.02;98087.63;4968570;28;20197;-69
2023/02/12 05:31:39;;;;;;;45.80;30.03;;;;;;;4.75;66.18;98095.47;4950870;28;20425;-69
2023/02/12 05:34:08;;;;;;;39.10;27.17;;;;;;;4.91;65.49;98088.59;4949473;28;20539;-69
2023/02/12 05:36:33;;;;;;;40.00;28.20;;;;;;;5.05;65.03;98086.06;4949138;29;20166;-68
2023/02/12 05:38:59;;;;;;;42.07;32.13;;;;;;;5.10;64.67;98084.34;4949107;29;20536;-68
2023/02/12 05:41:25;;;;;;;42.50;30.90;;;;;;;5.08;64.68;98088.72;4949392;29;20257;-69
2023/02/12 05:43:51;;;;;;;38.63;30.20;;;;;;;5.29;64.12;98094.00;4949129;29;20642;-69
2023/02/12 05:46:19;;;;;;;43.90;30.20;;;;;;;5.33;64.34;98096.63;4949964;28;20418;-69
2023/02/12 05:48:44;;;;;;;41.17;28.40;;;;;;;5.52;63.73;98101.03;4953047;29;20426;-69
2023/02/12 05:51:15;;;;;;;40.67;29.07;;;;;;;5.48;63.30;98096.66;4952958;29;20419;-69
2023/02/12 05:53:41;;;;;;;42.27;28.83;;;;;;;5.50;62.99;98103.66;4953032;28;20189;-69
2023/02/12 05:56:11;;;;;;;40.33;27.27;;;;;;;5.32;64.46;98105.31;4952907;29;20425;-69
2023/02/12 05:58:38;;;;;;;40.17;27.90;;;;;;;5.28;63.99;98105.28;4952896;29;20741;-69
2023/02/12 06:01:10;;;;;;;39.37;28.23;;;;;;;5.34;64.13;98096.63;4952925;28;20413;-69
2023/02/12 06:03:35;;;;;;;38.83;29.00;;;;;;;5.33;64.03;98099.22;4953190;29;20526;-69
2023/02/12 06:06:00;;;;;;;40.30;30.10;;;;;;;5.36;63.37;98102.69;4952969;29;20515;-69
2023/02/12 06:08:26;;;;;;;38.63;27.70;;;;;;;5.32;64.23;98107.91;4953219;29;20249;-69
2023/02/12 06:10:51;;;;;;;47.27;28.47;;;;;;;5.37;63.60;98106.19;4953264;29;20225;-69
2023/02/12 06:13:17;;;;;;;36.20;26.13;;;;;;;5.29;64.45;98108.72;4953013;28;20581;-68
2023/02/12 06:15:42;;;;;;;36.57;27.17;;;;;;;5.34;64.28;98106.16;4952862;29;20647;-69
2023/02/12 06:18:07;;;;;;;35.10;26.00;;;;;;;5.26;64.52;98114.81;4952511;29;20206;-69
2023/02/12 06:20:33;;;;;;;86.23;31.93;;;;;;;5.30;64.53;98118.31;4952594;29;20592;-69
2023/02/12 06:22:58;;;;;;;40.37;27.57;;;;;;;5.37;64.25;98120.06;4952671;29;20182;-68
2023/02/12 06:25:24;;;;;;;40.47;27.13;;;;;;;5.18;65.12;98124.31;4952651;29;20220;-68
2023/02/12 06:27:49;;;;;;;47.23;28.47;;;;;;;5.43;64.93;98114.91;4951989;29;20679;-68
2023/02/12 06:30:15;;;;;;;38.93;25.43;;;;;;;5.26;65.12;98116.53;4959002;28;20170;-70
2023/02/12 06:32:40;;;;;;;36.37;25.10;;;;;;;5.49;64.67;98114.03;4971886;28;20174;-70
2023/02/12 06:35:06;;;;;;;72.60;30.00;;;;;;;5.44;64.53;98123.56;4971773;28;20181;-69
2023/02/12 06:37:31;;;;;;;36.50;26.37;;;;;;;5.50;64.81;98126.19;4971368;28;20572;-69
2023/02/12 06:39:57;;;;;;;37.67;26.40;;;;;;;5.26;65.49;98137.34;4971729;28;20205;-69
2023/02/12 06:42:22;;;;;;;35.33;27.33;;;;;;;5.09;65.65;98129.47;4971599;28;20174;-69
2023/02/12 06:44:48;;;;;;;49.27;28.93;;;;;;;5.16;66.37;98133.84;4971717;28;20181;-68
2023/02/12 06:47:13;;;;;;;39.97;27.77;;;;;;;5.24;65.84;98133.88;4971505;28;20561;-70
2023/02/12 06:49:38;;;;;;;38.10;27.80;;;;;;;5.38;65.47;98128.75;4971333;28;20611;-69
2023/02/12 06:52:04;;;;;;;34.10;25.87;;;;;;;5.37;65.69;98127.00;4971428;28;20197;-70
2023/02/12 06:54:29;;;;;;;37.33;27.37;;;;;;;5.17;66.56;98129.50;4971354;28;20178;-69
2023/02/12 06:56:55;;;;;;;36.83;28.27;;;;;;;4.98;68.38;98136.34;4968499;28;20225;-69
2023/02/12 06:59:20;;;;;;;36.07;26.27;;;;;;;4.93;67.71;98130.22;4971004;28;20292;-69
2023/02/12 07:01:45;;;;;;;39.50;29.23;;;;;;;4.71;68.32;98135.28;4971208;28;20255;-69
2023/02/12 07:04:11;;;;;;;41.80;27.03;;;;;;;4.77;68.46;98124.94;4971051;28;20247;-69
2023/02/12 07:06:37;;;;;;;40.20;29.87;;;;;;;4.79;68.31;98133.59;4967615;28;20216;-69
2023/02/12 07:09:03;;;;;;;44.87;32.93;;;;;;;4.73;68.98;98130.97;4969346;28;20228;-69
2023/02/12 07:11:35;;;;;;;44.33;30.83;;;;;;;4.95;68.60;98131.13;4969369;28;20877;-69
2023/02/12 07:14:01;;;;;;;37.80;28.10;;;;;;;4.97;68.80;98134.59;4968960;28;20436;-69
2023/02/12 07:16:27;;;;;;;47.37;30.37;;;;;;;4.83;69.80;98134.50;4969840;28;20471;-69
2023/02/12 07:18:53;;;;;;;40.73;30.27;;;;;;;4.70;70.47;98138.78;4969244;28;20209;-69
2023/02/12 07:21:19;;;;;;;49.93;31.40;;;;;;;4.99;69.67;98135.50;4970543;28;20448;-69
2023/02/12 07:23:47;;;;;;;44.70;32.30;;;;;;;5.04;69.78;98138.97;4969012;28;20439;-69
2023/02/12 07:26:14;;;;;;;47.87;32.17;;;;;;;4.86;70.48;98135.38;4969455;28;20492;-70
2023/02/12 07:28:40;;;;;;;46.53;32.20;;;;;;;4.40;72.27;98147.19;4969098;28;20505;-68
2023/02/12 07:31:14;;;;;;;44.80;30.47;;;;;;;4.68;71.73;98148.28;4968639;28;20441;-68
2023/02/12 07:33:41;;;;;;;49.83;34.33;;;;;;;4.72;71.76;98143.97;4969630;28;20793;-68
2023/02/12 07:36:12;;;;;;;47.47;32.90;;;;;;;4.68;72.10;98135.28;4969225;28;20440;-68
2023/02/12 07:38:41;;;;;;;52.03;33.20;;;;;;;4.44;73.41;98142.03;4968736;28;20491;-69
2023/02/12 07:41:12;;;;;;;47.23;31.60;;;;;;;4.44;73.79;98142.03;4969350;28;20567;-68
2023/02/12 07:43:40;;;;;;;51.30;33.60;;;;;;;4.84;72.08;98137.13;4969847;28;20440;-69
2023/02/12 07:46:17;;;;;;;49.97;33.60;;;;;;;5.12;71.12;98136.41;4969149;28;20499;-69
2023/02/12 07:48:43;;;;;;;81.90;36.00;;;;;;;5.03;71.74;98140.72;4968988;28;20449;-71
2023/02/12 07:51:12;;;;;;;60.97;35.10;;;;;;;5.08;71.30;98140.75;4970740;28;20447;-70
2023/02/12 07:53:38;;;;;;;53.50;35.93;;;;;;;5.37;70.35;98138.28;4971692;28;20801;-69
2023/02/12 07:56:15;;;;;;;51.20;32.20;;;;;;;5.10;71.29;98141.59;4975329;28;20440;-67
2023/02/12 07:58:46;;;;;;;58.93;33.70;;;;;;;5.22;71.23;98139.09;4969456;28;20468;-69
2023/02/12 08:01:20;;;;;;;69.73;32.67;;;;;;;5.50;70.49;98139.19;4973997;28;20532;-70
2023/02/12 08:03:47;;;;;;;55.67;34.27;;;;;;;5.45;70.84;98131.38;4970172;28;20929;-69
2023/02/12 08:06:17;;;;;;;53.13;31.93;;;;;;;5.51;70.38;98138.34;4969685;28;20441;-70
2023/02/12 08:08:43;;;;;;;48.53;31.00;;;;;;;5.50;69.80;98127.06;4965261;28;20476;-70
2023/02/12 08:11:11;;;;;;;64.70;31.67;;;;;;;5.69;69.79;98127.13;4968230;28;20472;-69
2023/02/12 08:13:36;;;;;;;52.63;33.63;;;;;;;5.76;69.77;98128.00;4968160;28;20911;-69
2023/02/12 08:16:05;;;;;;;43.73;31.23;;;;;;;5.99;68.61;98135.94;4968539;28;20473;-69
2023/02/12 08:18:31;;;;;;;55.50;34.63;;;;;;;5.85;68.82;98134.13;4968333;28;20457;-68
2023/02/12 08:21:05;;;;;;;50.20;32.10;;;;;;;6.00;68.32;98129.84;4968569;28;20524;-68
2023/02/12 08:23:31;;;;;;;49.40;33.10;;;;;;;6.07;68.30;98135.09;4968984;28;20437;-69
2023/02/12 08:26:15;;;;;;;52.63;35.37;;;;;;;5.92;69.31;98137.59;4967644;28;21222;-69
2023/02/12 08:28:48;;;;;;;60.17;34.50;;;;;;;5.96;69.35;98139.41;4967371;28;20464;-69
2023/02/12 08:31:17;;;;;;;57.67;35.43;;;;;;;6.08;68.71;98130.72;4966645;28;20847;-68
2023/02/12 08:33:44;;;;;;;54.23;33.67;;;;;;;6.26;68.28;98141.19;4965861;28;21124;-68
2023/02/12 08:36:13;;;;;;;56.00;33.50;;;;;;;6.09;68.98;98130.72;4966448;28;20874;-69
2023/02/12 08:38:39;;;;;;;56.73;34.67;;;;;;;6.04;69.47;98136.81;4966890;28;20510;-68
2023/02/12 08:41:08;;;;;;;49.20;31.37;;;;;;;6.07;69.35;98137.69;4968104;28;20445;-69
2023/02/12 08:43:34;;;;;;;49.63;31.07;;;;;;;5.94;70.58;98134.16;4967156;28;20702;-69
2023/02/12 08:46:11;;;;;;;54.33;34.53;;;;;;;5.61;71.64;98139.25;4966358;28;20443;-68
2023/02/12 08:48:38;;;;;;;49.57;31.73;;;;;;;6.05;70.35;98129.00;4965145;28;20925;-68
2023/02/12 08:51:10;;;;;;;58.80;34.33;;;;;;;6.08;70.16;98134.22;4961820;28;21075;-68
2023/02/12 08:53:36;;;;;;;48.07;31.80;;;;;;;5.71;71.62;98139.28;4959981;28;20930;-68
2023/02/12 08:56:02;;;;;;;49.23;31.13;;;;;;;5.81;71.60;98128.88;4967659;28;20417;-68
2023/02/12 08:58:27;;;;;;;48.53;31.43;;;;;;;6.01;71.17;98127.25;4969217;28;20854;-69
2023/02/12 09:00:53;;;;;;;57.87;30.33;;;;;;;6.34;69.87;98129.03;4967326;28;20182;-68
2023/02/12 09:03:18;;;;;;;94.33;35.70;;;;;;;6.57;68.89;98126.44;4967116;28;20209;-69
2023/02/12 09:05:44;;;;;;;50.77;29.80;;;;;;;6.67;68.38;98121.22;4966738;28;20217;-70
2023/02/12 09:08:09;;;;;;;49.63;29.13;;;;;;;6.69;68.26;98132.50;4968773;28;20190;-69
2023/02/12 09:10:42;;;;;;;42.10;27.00;;;;;;;6.49;69.11;98128.16;4969351;28;20586;-68
2023/02/12 09:13:09;;;;;;;52.30;28.87;;;;;;;6.71;68.90;98120.34;4969095;28;20540;-68
2023/02/12 09:15:42;;;;;;;46.90;26.93;;;;;;;6.98;67.90;98117.66;4968840;28;21122;-69
2023/02/12 09:18:11;;;;;;;41.57;26.60;;;;;;;6.85;68.51;98112.47;4968721;28;20480;-70
2023/02/12 09:20:43;;;;;;;44.63;28.23;;;;;;;7.21;67.17;98116.75;4965366;28;20464;-68
2023/02/12 09:23:10;;;;;;;44.67;27.20;;;;;;;7.36;66.63;98113.22;4968290;28;20425;-68
2023/02/12 09:25:40;;;;;;;39.33;24.93;;;;;;;7.32;66.59;98115.00;4966127;28;20802;-69
2023/02/12 09:28:05;;;;;;;46.23;27.47;;;;;;;7.50;66.04;98118.41;4965536;28;20459;-69
2023/02/12 09:30:31;;;;;;;43.07;28.00;;;;;;;7.41;66.22;98119.28;4962988;28;20777;-69
2023/02/12 09:32:56;;;;;;;50.97;28.67;;;;;;;7.37;66.64;98122.78;4963581;28;20181;-69
2023/02/12 09:35:23;;;;;;;117.63;36.30;;;;;;;7.14;67.32;98121.13;4963187;28;20181;-69
2023/02/12 09:37:48;;;;;;;47.87;27.43;;;;;;;7.35;66.85;98122.81;4962730;28;20239;-68
2023/02/12 09:40:39;;;;;;;47.77;27.70;;;;;;;7.21;67.65;98121.97;4964015;28;20575;-68
2023/02/12 09:43:25;;;;;;;45.40;26.87;;;;;;;7.20;67.35;98126.34;4961212;28;20186;-70
2023/02/12 09:46:00;;;;;;;37.90;23.27;;;;;;;6.68;69.52;98130.75;4960669;28;20567;-70
2023/02/12 09:49:19;;;;;;;46.83;26.87;;;;;;;7.20;67.93;98123.72;4961912;28;20925;-71
2023/02/12 09:51:52;;;;;;;41.30;23.63;;;;;;;7.20;67.55;98126.34;4958041;28;20523;-67
2023/02/12 09:54:21;;;;;;;38.90;23.43;;;;;;;7.10;68.38;98135.03;4964693;28;20826;-68
2023/02/12 09:56:54;;;;;;;46.47;27.27;;;;;;;7.20;68.21;98135.88;4962763;28;20428;-67
2023/02/12 09:59:36;;;;;;;39.83;23.07;;;;;;;6.97;68.63;98144.66;4960678;28;22152;-70
2023/02/12 10:02:05;;;;;;;40.37;22.07;;;;;;;6.99;68.48;98137.69;4964212;28;20425;-69
2023/02/12 10:04:30;;;;;;;40.40;24.67;;;;;;;6.96;69.08;98134.22;4961625;28;20444;-69
2023/02/12 10:07:16;;;;;;;31.80;19.47;;;;;;;7.01;68.68;98129.84;4963281;28;20437;-69
2023/02/12 10:10:01;;;;;;;34.90;21.33;;;;;;;7.01;69.38;98132.44;4965361;28;20229;-68
2023/02/12 10:12:26;;;;;;;34.83;21.33;;;;;;;6.80;69.97;98135.97;4964240;28;21398;-69
2023/02/12 10:14:59;;;;;;;32.90;18.13;;;;;;;6.72;69.94;98137.72;4978826;28;20460;-69
2023/02/12 10:17:44;;;;;;;34.13;19.13;;;;;;;6.45;71.08;98144.69;4963839;28;20620;-70
2023/02/12 10:20:21;;;;;;;34.37;20.43;;;;;;;6.64;70.70;98149.88;4959961;28;20555;-69
2023/02/12 10:23:22;;;;;;;31.53;18.17;;;;;;;6.74;70.34;98143.81;4962765;28;20437;-70
2023/02/12 10:25:55;;;;;;;28.60;15.83;;;;;;;6.73;70.12;98139.44;4984816;28;20903;-67
2023/02/12 10:28:50;;;;;;;29.80;15.43;;;;;;;6.87;69.50;98136.81;4979088;28;20572;-68
2023/02/12 10:31:26;;;;;;;28.00;15.20;;;;;;;6.87;69.46;98129.84;4982948;28;20448;-69
2023/02/12 10:33:53;;;;;;;35.70;17.47;;;;;;;6.99;69.09;98127.25;4982191;28;20582;-70
2023/02/12 10:36:27;;;;;;;33.90;19.50;;;;;;;6.54;71.13;98136.88;4982933;28;20581;-68
2023/02/12 10:39:16;;;;;;;30.53;18.70;;;;;;;6.34;71.69;98138.59;4982574;28;20470;-71
2023/02/12 10:41:54;;;;;;;42.50;20.57;;;;;;;6.30;72.78;98135.09;4978904;28;20834;-70
2023/02/12 10:44:21;;;;;;;33.43;19.13;;;;;;;6.33;71.76;98123.78;4967946;28;20464;-70
2023/02/12 10:46:46;;;;;;;35.27;19.77;;;;;;;6.78;70.66;98130.75;4966762;28;20495;-69
2023/02/12 10:49:15;;;;;;;35.60;20.07;;;;;;;6.87;69.63;98127.25;4966771;28;20765;-68
2023/02/12 10:51:43;;;;;;;32.20;17.80;;;;;;;7.00;69.41;98128.97;4965525;28;20205;-68
2023/02/12 10:54:30;;;;;;;31.77;19.70;;;;;;;6.82;70.04;98128.13;4967219;28;20448;-69
2023/02/12 10:56:57;;;;;;;32.70;19.53;;;;;;;6.26;71.94;98132.47;4964870;28;20456;-70
2023/02/12 10:59:23;;;;;;;28.37;18.20;;;;;;;6.46;71.82;98129.91;4968308;28;21027;-70
2023/02/12 11:01:49;;;;;;;32.40;19.77;;;;;;;6.44;71.79;98132.50;4968354;28;20531;-69
2023/02/12 11:04:23;;;;;;;32.30;19.27;;;;;;;6.23;73.14;98122.06;4969087;28;20194;-69
2023/02/12 11:07:02;;;;;;;33.60;20.03;;;;;;;6.45;71.88;98120.31;4964090;28;20181;-68
2023/02/12 11:09:44;;;;;;;28.93;16.83;;;;;;;6.43;72.00;98109.06;4971565;28;20499;-70
2023/02/12 11:12:21;;;;;;;31.75;19.23;;;;;;;6.77;70.93;98115.09;4970621;28;20922;-70
2023/02/12 11:14:53;;;;;;;29.00;18.50;;;;;;;6.64;71.61;98111.66;4959762;28;20888;-71
2023/02/12 11:17:39;;;;;;;28.37;16.73;;;;;;;6.95;70.46;98106.38;4959072;28;20477;-71
2023/02/12 11:20:17;;;;;;;28.23;16.33;;;;;;;6.50;71.48;98103.81;4968511;28;20473;-70
2023/02/12 11:22:52;;;;;;;26.70;16.03;;;;;;;6.62;71.69;98096.88;4969248;28;20440;-70
2023/02/12 11:25:19;;;;;;;17.30;10.70;;;;;;;6.38;71.44;98101.22;4966377;28;20436;-69
2023/02/12 11:27:44;;;;;;;18.17;10.57;;;;;;;6.25;72.60;98102.06;4967848;28;20461;-71
2023/02/12 11:30:20;;;;;;;19.03;10.50;;;;;;;6.26;72.46;98106.41;4969491;28;20527;-70
2023/02/12 11:32:48;;;;;;;16.23;10.57;;;;;;;6.23;72.55;98101.19;4988165;28;20181;-73
2023/02/12 11:35:22;;;;;;;19.47;13.20;;;;;;;6.18;72.95;98105.56;4982881;28;20428;-71
2023/02/12 11:37:49;;;;;;;13.80;8.90;;;;;;;6.08;72.89;98107.28;4969187;28;20548;-70
2023/02/12 11:40:24;;;;;;;10.80;8.00;;;;;;;5.96;72.93;98108.13;4969565;28;20464;-69
2023/02/12 11:43:06;;;;;;;14.60;8.90;;;;;;;5.99;73.58;98107.25;4968950;28;20432;-69
2023/02/12 11:45:55;;;;;;;14.40;8.20;;;;;;;5.73;74.13;98106.28;4967124;28;20499;-69